Time;durP1;ratioP1;P1;durP2;ratioP2;P2;SDS_P1;SDS_P2;PMS_P1;PMS_P2;Temp;Humidity;BMP_temperature;BMP_pressure;BME280_temperature;BME280_humidity;BME280_pressure;Samples;Min_cycle;Max_cycle;Signal;HPM_P1;HPM_P2
2021/09/10 00:02:30;;;;;;;;;;;;;;;;;;5041598;28;19925;-79
2021/09/10 00:05:14;;;;;;;;;;;;;;;;;;5033544;28;19936;-79
2021/09/10 00:07:58;;;;;;;;;;;;;;;;;;5042822;28;19920;-79
2021/09/10 00:10:42;;;;;;;;;;;;;;;;;;5037039;28;21705;-79
2021/09/10 00:13:27;;;;;;;;;;;;;;;;;;5042368;28;19924;-79
2021/09/10 00:16:11;;;;;;;;;;;;;;;;;;5057683;28;20305;-79
2021/09/10 00:18:55;;;;;;;;;;;;;;;;;;5023817;28;19924;-80
2021/09/10 00:21:40;;;;;;;;;;;;;;;;;;5046321;28;19920;-80
2021/09/10 00:24:24;;;;;;;;;;;;;;;;;;5039854;28;19920;-80
2021/09/10 00:27:08;;;;;;;;;;;;;;;;;;5052467;28;19920;-80
2021/09/10 00:29:52;;;;;;;;;;;;;;;;;;5036194;28;20586;-80
2021/09/10 00:32:36;;;;;;;;;;;;;;;;;;5035967;28;19936;-80
2021/09/10 00:35:20;;;;;;;;;;;;;;;;;;5041144;28;19924;-79
2021/09/10 00:38:05;;;;;;;;;;;;;;;;;;5037854;28;19940;-79
2021/09/10 00:40:50;;;;;;;;;;;;;;;;;;5039353;28;19920;-79
2021/09/10 00:43:35;;;;;;;;;;;;;;;;;;5038174;28;19939;-81
2021/09/10 00:46:19;;;;;;;;;;;;;;;;;;5047674;28;19920;-79
2021/09/10 00:49:03;;;;;;;;;;;;;;;;;;5046440;28;19973;-79
2021/09/10 00:51:47;;;;;;;;;;;;;;;;;;5024328;28;19921;-79
2021/09/10 00:54:32;;;;;;;;;;;;;;;;;;5042951;28;19920;-79
2021/09/10 00:57:18;;;;;;;;;;;;;;;;;;5040714;28;19920;-79
2021/09/10 01:00:02;;;;;;;;;;;;;;;;;;5043062;28;19984;-80
2021/09/10 01:02:46;;;;;;;;;;;;;;;;;;5044522;28;19920;-80
2021/09/10 01:05:31;;;;;;;;;;;;;;;;;;5042372;28;19932;-79
2021/09/10 01:08:15;;;;;;;;;;;;;;;;;;5040663;28;19924;-79
2021/09/10 01:10:59;;;;;;;;;;;;;;;;;;5039541;28;19920;-79
2021/09/10 01:13:43;;;;;;;;;;;;;;;;;;5043621;28;19936;-80
2021/09/10 01:16:28;;;;;;;;;;;;;;;;;;5043866;28;19920;-79
2021/09/10 01:19:12;;;;;;;;;;;;;;;;;;5040852;28;19924;-79
2021/09/10 01:21:56;;;;;;;;;;;;;;;;;;5043020;28;19920;-79
2021/09/10 01:24:41;;;;;;;;;;;;;;;;;;5042865;28;19928;-79
2021/09/10 01:27:25;;;;;;;;;;;;;;;;;;5039812;28;19928;-79
2021/09/10 01:30:09;;;;;;;;;;;;;;;;;;5055558;28;19981;-79
2021/09/10 01:32:53;;;;;;;;;;;;;;;;;;5042812;28;19920;-79
2021/09/10 01:35:38;;;;;;;;;;;;;;;;;;5041488;28;19924;-78
2021/09/10 01:38:24;;;;;;;;;;;;;;;;;;5040809;28;19924;-78
2021/09/10 01:41:09;;;;;;;;;;;;;;;;;;5041166;28;19920;-78
2021/09/10 01:43:53;;;;;;;;;;;;;;;;;;5011248;28;19925;-79
2021/09/10 01:46:37;;;;;;;;;;;;;;;;;;5039514;28;19920;-80
2021/09/10 01:49:21;;;;;;;;;;;;;;;;;;5041674;28;19920;-80
2021/09/10 01:52:06;;;;;;;;;;;;;;;;;;5042049;28;19924;-79
2021/09/10 01:54:50;;;;;;;;;;;;;;;;;;5026987;28;19920;-79
2021/09/10 01:57:34;;;;;;;;;;;;;;;;;;5039333;28;19920;-79
2021/09/10 02:00:19;;;;;;;;;;;;;;;;;;5042692;28;19920;-79
2021/09/10 02:03:03;;;;;;;;;;;;;;;;;;5042590;28;19920;-79
2021/09/10 02:05:47;;;;;;;;;;;;;;;;;;5044680;28;19920;-80
2021/09/10 02:08:31;;;;;;;;;;;;;;;;;;5038848;28;20412;-79
2021/09/10 02:11:15;;;;;;;;;;;;;;;;;;5021442;28;19920;-80
2021/09/10 02:14:00;;;;;;;;;;;;;;;;;;5027479;28;19920;-79
2021/09/10 02:16:44;;;;;;;;;;;;;;;;;;5043450;28;19920;-79
2021/09/10 02:19:28;;;;;;;;;;;;;;;;;;5039301;28;19924;-80
2021/09/10 02:22:12;;;;;;;;;;;;;;;;;;5054998;28;20404;-80
2021/09/10 02:24:57;;;;;;;;;;;;;;;;;;5063251;28;19920;-79
2021/09/10 02:27:41;;;;;;;;;;;;;;;;;;5044475;28;20415;-79
2021/09/10 02:30:25;;;;;;;;;;;;;;;;;;5042396;28;19992;-79
2021/09/10 02:33:10;;;;;;;;;;;;;;;;;;5039219;28;19924;-80
2021/09/10 02:35:54;;;;;;;;;;;;;;;;;;5044240;28;19920;-79
2021/09/10 02:38:39;;;;;;;;;;;;;;;;;;5039103;28;19925;-79
2021/09/10 02:41:23;;;;;;;;;;;;;;;;;;5029923;28;19920;-79
2021/09/10 02:44:08;;;;;;;;;;;;;;;;;;5040860;28;20589;-79
2021/09/10 02:46:53;;;;;;;;;;;;;;;;;;5041679;28;20395;-78
2021/09/10 02:49:37;;;;;;;;;;;;;;;;;;5042653;28;19920;-79
2021/09/10 02:52:21;;;;;;;;;;;;;;;;;;5041347;28;19924;-79
2021/09/10 02:55:07;;;;;;;;;;;;;;;;;;5042647;28;20404;-78
2021/09/10 02:57:52;;;;;;;;;;;;;;;;;;5038815;28;19924;-79
2021/09/10 03:00:38;;;;;;;;;;;;;;;;;;5035682;28;19920;-79
2021/09/10 03:03:23;;;;;;;;;;;;;;;;;;5039965;28;19920;-79
2021/09/10 03:06:07;;;;;;;;;;;;;;;;;;5038662;28;19936;-79
2021/09/10 03:08:51;;;;;;;;;;;;;;;;;;5035922;28;19928;-79
2021/09/10 03:11:35;;;;;;;;;;;;;;;;;;5032714;28;19924;-79
2021/09/10 03:14:20;;;;;;;;;;;;;;;;;;5039053;28;20309;-79
2021/09/10 03:17:04;;;;;;;;;;;;;;;;;;5038344;28;19920;-79
2021/09/10 03:19:48;;;;;;;;;;;;;;;;;;5038183;28;19924;-79
2021/09/10 03:22:33;;;;;;;;;;;;;;;;;;5036256;28;19928;-79
2021/09/10 03:25:17;;;;;;;;;;;;;;;;;;5047681;28;20296;-79
2021/09/10 03:28:01;;;;;;;;;;;;;;;;;;5041393;28;19940;-79
2021/09/10 03:30:45;;;;;;;;;;;;;;;;;;5035703;28;20305;-79
2021/09/10 03:33:29;;;;;;;;;;;;;;;;;;5036190;28;19920;-79
2021/09/10 03:36:14;;;;;;;;;;;;;;;;;;5050965;28;19928;-79
2021/09/10 03:38:58;;;;;;;;;;;;;;;;;;5033809;28;19924;-79
2021/09/10 03:41:42;;;;;;;;;;;;;;;;;;5024887;28;19920;-79
2021/09/10 03:44:26;;;;;;;;;;;;;;;;;;5029125;28;19920;-79
2021/09/10 03:47:11;;;;;;;;;;;;;;;;;;5050058;28;19936;-80
2021/09/10 03:49:55;;;;;;;;;;;;;;;;;;5035850;28;19920;-80
2021/09/10 03:52:39;;;;;;;;;;;;;;;;;;5041891;28;20293;-79
2021/09/10 03:55:23;;;;;;;;;;;;;;;;;;5040189;28;19921;-79
2021/09/10 03:58:08;;;;;;;;;;;;;;;;;;5053668;28;19924;-80
2021/09/10 04:00:54;;;;;;;;;;;;;;;;;;5039637;28;19928;-79
2021/09/10 04:03:39;;;;;;;;;;;;;;;;;;5038618;28;19924;-79
2021/09/10 04:06:25;;;;;;;;;;;;;;;;;;5044037;28;19922;-78
2021/09/10 04:09:10;;;;;;;;;;;;;;;;;;5041505;28;19924;-79
2021/09/10 04:11:54;;;;;;;;;;;;;;;;;;5037118;28;19920;-79
2021/09/10 04:14:38;;;;;;;;;;;;;;;;;;5039777;28;19920;-79
2021/09/10 04:17:22;;;;;;;;;;;;;;;;;;5039752;28;19920;-79
2021/09/10 04:20:07;;;;;;;;;;;;;;;;;;5040798;28;19924;-79
2021/09/10 04:22:51;;;;;;;;;;;;;;;;;;5035727;28;20403;-78
2021/09/10 04:25:35;;;;;;;;;;;;;;;;;;5050720;28;19924;-79
2021/09/10 04:28:19;;;;;;;;;;;;;;;;;;5040328;28;21936;-78
2021/09/10 04:31:03;;;;;;;;;;;;;;;;;;5029554;28;19921;-78
2021/09/10 04:33:48;;;;;;;;;;;;;;;;;;5037302;28;19920;-79
2021/09/10 04:36:32;;;;;;;;;;;;;;;;;;5022100;28;19924;-79
2021/09/10 04:39:16;;;;;;;;;;;;;;;;;;5041137;28;20400;-79
2021/09/10 04:42:00;;;;;;;;;;;;;;;;;;5035206;28;19920;-79
2021/09/10 04:44:45;;;;;;;;;;;;;;;;;;5028341;28;19928;-78
2021/09/10 04:47:29;;;;;;;;;;;;;;;;;;5034902;28;19936;-78
2021/09/10 04:50:14;;;;;;;;;;;;;;;;;;5033276;28;19920;-78
2021/09/10 04:52:58;;;;;;;;;;;;;;;;;;5043887;28;19923;-79
2021/09/10 04:55:43;;;;;;;;;;;;;;;;;;5029578;28;20412;-78
2021/09/10 04:58:28;;;;;;;;;;;;;;;;;;5031258;28;19925;-78
2021/09/10 05:01:12;;;;;;;;;;;;;;;;;;5031939;28;20312;-78
2021/09/10 05:03:56;;;;;;;;;;;;;;;;;;5034459;28;19920;-78
2021/09/10 05:06:40;;;;;;;;;;;;;;;;;;5035205;28;19943;-78
2021/09/10 05:09:24;;;;;;;;;;;;;;;;;;5033744;28;19928;-79
2021/09/10 05:12:08;;;;;;;;;;;;;;;;;;5032976;28;19924;-78
2021/09/10 05:14:53;;;;;;;;;;;;;;;;;;5031172;28;20290;-81
2021/09/10 05:17:37;;;;;;;;;;;;;;;;;;5040713;28;19920;-81
2021/09/10 05:20:22;;;;;;;;;;;;;;;;;;5042226;28;19928;-81
2021/09/10 05:23:06;;;;;;;;;;;;;;;;;;5060210;28;19920;-80
2021/09/10 05:25:50;;;;;;;;;;;;;;;;;;5043524;28;19920;-80
2021/09/10 05:28:34;;;;;;;;;;;;;;;;;;5048857;28;20301;-81
2021/09/10 05:31:18;;;;;;;;;;;;;;;;;;5039486;28;20420;-80
2021/09/10 05:34:03;;;;;;;;;;;;;;;;;;5041613;28;19920;-81
2021/09/10 05:36:47;;;;;;;;;;;;;;;;;;5040269;28;19924;-81
2021/09/10 05:39:31;;;;;;;;;;;;;;;;;;5038278;28;19928;-80
2021/09/10 05:42:15;;;;;;;;;;;;;;;;;;5060485;28;19920;-80
2021/09/10 05:45:00;;;;;;;;;;;;;;;;;;5042860;28;19928;-79
2021/09/10 05:47:44;;;;;;;;;;;;;;;;;;5032090;28;19921;-80
2021/09/10 05:50:28;;;;;;;;;;;;;;;;;;5033433;28;19920;-79
2021/09/10 05:53:13;;;;;;;;;;;;;;;;;;5049777;28;20327;-78
2021/09/10 05:55:57;;;;;;;;;;;;;;;;;;5053457;28;20400;-80
2021/09/10 05:58:41;;;;;;;;;;;;;;;;;;5047696;28;19928;-79
2021/09/10 06:01:25;;;;;;;;;;;;;;;;;;5041613;28;19920;-81
2021/09/10 06:04:10;;;;;;;;;;;;;;;;;;5039116;28;19921;-80
2021/09/10 06:06:54;;;;;;;;;;;;;;;;;;5035985;28;19944;-80
2021/09/10 06:09:38;;;;;;;;;;;;;;;;;;5029910;28;19936;-80
2021/09/10 06:12:23;;;;;;;;;;;;;;;;;;5046192;28;19936;-81
2021/09/10 06:15:08;;;;;;;;;;;;;;;;;;5046572;28;19928;-80
2021/09/10 06:17:52;;;;;;;;;;;;;;;;;;5044017;28;19920;-81
2021/09/10 06:20:36;;;;;;;;;;;;;;;;;;5057709;28;19928;-81
2021/09/10 06:23:20;;;;;;;;;;;;;;;;;;5047180;28;20488;-81
2021/09/10 06:26:05;;;;;;;;;;;;;;;;;;5058635;28;19928;-80
2021/09/10 06:28:49;;;;;;;;;;;;;;;;;;5046851;28;19920;-79
2021/09/10 06:31:33;;;;;;;;;;;;;;;;;;5042836;28;20293;-80
2021/09/10 06:34:20;;;;;;;;;;;;;;;;;;5054047;28;19920;-80
2021/09/10 06:37:05;;;;;;;;;;;;;;;;;;5063064;28;19920;-79
2021/09/10 06:39:49;;;;;;;;;;;;;;;;;;5062195;28;20415;-80
2021/09/10 06:42:33;;;;;;;;;;;;;;;;;;5062474;28;19980;-80
2021/09/10 06:45:18;;;;;;;;;;;;;;;;;;5061745;28;19971;-79
2021/09/10 06:48:02;;;;;;;;;;;;;;;;;;5059444;28;19923;-80
2021/09/10 06:50:46;;;;;;;;;;;;;;;;;;5057538;28;19923;-80
2021/09/10 06:53:32;;;;;;;;;;;;;;;;;;5062547;28;19924;-79
2021/09/10 06:56:16;;;;;;;;;;;;;;;;;;5061691;28;19928;-79
2021/09/10 06:59:00;;;;;;;;;;;;;;;;;;5063522;28;20031;-80
2021/09/10 07:01:45;;;;;;;;;;;;;;;;;;5060227;28;19920;-80
2021/09/10 07:04:30;;;;;;;;;;;;;;;;;;5066272;28;19920;-79
2021/09/10 07:07:14;;;;;;;;;;;;;;;;;;5063100;28;19928;-80
2021/09/10 07:09:59;;;;;;;;;;;;;;;;;;5063619;28;19987;-81
2021/09/10 07:12:43;;;;;;;;;;;;;;;;;;5065081;28;19924;-80
2021/09/10 07:15:27;;;;;;;;;;;;;;;;;;5068926;28;19919;-80
2021/09/10 07:18:11;;;;;;;;;;;;;;;;;;5053563;28;19924;-80
2021/09/10 07:20:56;;;;;;;;;;;;;;;;;;5062864;28;19919;-80
2021/09/10 07:23:40;;;;;;;;;;;;;;;;;;5048989;28;20396;-80
2021/09/10 07:26:25;;;;;;;;;;;;;;;;;;5063664;28;19920;-81
2021/09/10 07:29:10;;;;;;;;;;;;;;;;;;5064541;28;19928;-80
2021/09/10 07:31:55;;;;;;;;;;;;;;;;;;5054913;28;19923;-80
2021/09/10 07:34:38;;;;;;;;;;;;;;;;;;5053183;28;19920;-81
2021/09/10 07:37:30;;;;;;;;;;;;;;;;;;5059181;28;19920;-82
2021/09/10 07:40:14;;;;;;;;;;;;;;;;;;5049797;28;19988;-80
2021/09/10 07:42:58;;;;;;;;;;;;;;;;;;5045747;28;20297;-80
2021/09/10 07:45:43;;;;;;;;;;;;;;;;;;5031739;28;19923;-80
2021/09/10 07:48:29;;;;;;;;;;;;;;;;;;5050047;28;19920;-80
2021/09/10 07:51:13;;;;;;;;;;;;;;;;;;5056913;28;19927;-80
2021/09/10 07:53:58;;;;;;;;;;;;;;;;;;5050493;28;20400;-81
2021/09/10 07:56:42;;;;;;;;;;;;;;;;;;5047341;28;19940;-78
2021/09/10 07:59:27;;;;;;;;;;;;;;;;;;5060712;28;19956;-80
2021/09/10 08:02:11;;;;;;;;;;;;;;;;;;5049211;28;19927;-80
2021/09/10 08:04:56;;;;;;;;;;;;;;;;;;5045657;28;19921;-80
2021/09/10 08:07:40;;;;;;;;;;;;;;;;;;5032354;28;19920;-78
2021/09/10 08:10:25;;;;;;;;;;;;;;;;;;5044062;28;19924;-79
2021/09/10 08:13:11;;;;;;;;;;;;;;;;;;5054302;28;19924;-80
2021/09/10 08:15:55;;;;;;;;;;;;;;;;;;5049543;28;19924;-80
2021/09/10 08:18:39;;;;;;;;;;;;;;;;;;5046953;28;19923;-80
2021/09/10 08:21:24;;;;;;;;;;;;;;;;;;5058358;28;20423;-80
2021/09/10 08:24:09;;;;;;;;;;;;;;;;;;5049984;28;19920;-80
2021/09/10 08:26:54;;;;;;;;;;;;;;;;;;5047614;28;19928;-80
2021/09/10 08:29:38;;;;;;;;;;;;;;;;;;5028738;28;19920;-80
2021/09/10 08:32:22;;;;;;;;;;;;;;;;;;5048240;28;19920;-81
2021/09/10 08:35:06;;;;;;;;;;;;;;;;;;5055899;28;19920;-81
2021/09/10 08:37:51;;;;;;;;;;;;;;;;;;5032950;28;19924;-80
2021/09/10 08:40:35;;;;;;;;;;;;;;;;;;5044829;28;19940;-80
2021/09/10 08:43:20;;;;;;;;;;;;;;;;;;5056969;28;19920;-81
2021/09/10 08:46:04;;;;;;;;;;;;;;;;;;5046930;28;19920;-81
2021/09/10 08:48:48;;;;;;;;;;;;;;;;;;5044365;28;20436;-80
2021/09/10 08:51:32;;;;;;;;;;;;;;;;;;5043543;28;19924;-81
2021/09/10 08:54:18;;;;;;;;;;;;;;;;;;5038480;28;19984;-81
2021/09/10 08:57:02;;;;;;;;;;;;;;;;;;5040360;28;19925;-80
2021/09/10 08:59:46;;;;;;;;;;;;;;;;;;5037698;28;19942;-81
2021/09/10 09:02:31;;;;;;;;;;;;;;;;;;5039546;28;19925;-80
2021/09/10 09:05:15;;;;;;;;;;;;;;;;;;5030838;28;19924;-81
2021/09/10 09:07:59;;;;;;;;;;;;;;;;;;5031455;28;19928;-81
2021/09/10 09:10:43;;;;;;;;;;;;;;;;;;5038493;28;19924;-81
2021/09/10 09:13:27;;;;;;;;;;;;;;;;;;5053211;28;20313;-81
2021/09/10 09:16:12;;;;;;;;;;;;;;;;;;5040322;28;19924;-81
2021/09/10 09:18:56;;;;;;;;;;;;;;;;;;5041377;28;19924;-81
2021/09/10 09:21:41;;;;;;;;;;;;;;;;;;5054667;28;19936;-80
2021/09/10 09:24:26;;;;;;;;;;;;;;;;;;5041706;28;19920;-80
2021/09/10 09:27:11;;;;;;;;;;;;;;;;;;5041807;28;19920;-81
2021/09/10 09:29:56;;;;;;;;;;;;;;;;;;5042005;28;19936;-80
2021/09/10 09:32:41;;;;;;;;;;;;;;;;;;5040247;28;19924;-81
2021/09/10 09:35:25;;;;;;;;;;;;;;;;;;5045285;28;19921;-80
2021/09/10 09:38:10;;;;;;;;;;;;;;;;;;5041664;28;19920;-80
2021/09/10 09:40:54;;;;;;;;;;;;;;;;;;5040354;28;19924;-80
2021/09/10 09:43:38;;;;;;;;;;;;;;;;;;5041279;28;19920;-81
2021/09/10 09:46:22;;;;;;;;;;;;;;;;;;5035358;28;19928;-82
2021/09/10 09:49:07;;;;;;;;;;;;;;;;;;5036597;28;19921;-82
2021/09/10 09:51:51;;;;;;;;;;;;;;;;;;5041398;28;19936;-80
2021/09/10 09:54:35;;;;;;;;;;;;;;;;;;5039505;28;20300;-79
2021/09/10 09:57:19;;;;;;;;;;;;;;;;;;5039971;28;19920;-80
2021/09/10 10:00:03;;;;;;;;;;;;;;;;;;5036833;28;19924;-79
2021/09/10 10:02:48;;;;;;;;;;;;;;;;;;5040138;28;19929;-79
2021/09/10 10:05:32;;;;;;;;;;;;;;;;;;5036382;28;19924;-79
2021/09/10 10:08:16;;;;;;;;;;;;;;;;;;5042987;28;19985;-80
2021/09/10 10:11:01;;;;;;;;;;;;;;;;;;5039300;28;20202;-82
2021/09/10 10:13:45;;;;;;;;;;;;;;;;;;5035866;28;20412;-80
2021/09/10 10:16:29;;;;;;;;;;;;;;;;;;5036607;28;19920;-79
2021/09/10 10:19:13;;;;;;;;;;;;;;;;;;5036134;28;19924;-82
2021/09/10 10:21:57;;;;;;;;;;;;;;;;;;5037857;28;20290;-81
2021/09/10 10:24:42;;;;;;;;;;;;;;;;;;5038194;28;19940;-80
2021/09/10 10:27:28;;;;;;;;;;;;;;;;;;5038381;28;20408;-81
2021/09/10 10:30:12;;;;;;;;;;;;;;;;;;5032172;28;19924;-80
2021/09/10 10:32:56;;;;;;;;;;;;;;;;;;5037270;28;19920;-80
2021/09/10 10:35:41;;;;;;;;;;;;;;;;;;5038258;28;19921;-81
2021/09/10 10:38:25;;;;;;;;;;;;;;;;;;5035052;28;19920;-80
2021/09/10 10:41:09;;;;;;;;;;;;;;;;;;5036229;28;19920;-81
2021/09/10 10:43:57;;;;;;;;;;;;;;;;;;5043378;28;20297;-80
2021/09/10 10:46:41;;;;;;;;;;;;;;;;;;5038525;28;19921;-82
2021/09/10 10:49:25;;;;;;;;;;;;;;;;;;5036565;28;19921;-83
2021/09/10 10:52:09;;;;;;;;;;;;;;;;;;5036600;28;19920;-83
2021/09/10 10:54:53;;;;;;;;;;;;;;;;;;5037832;28;19920;-83
2021/09/10 10:57:37;;;;;;;;;;;;;;;;;;5039733;28;19929;-83
2021/09/10 11:00:22;;;;;;;;;;;;;;;;;;5047056;28;19924;-82
2021/09/10 11:03:06;;;;;;;;;;;;;;;;;;5043017;28;20293;-82
2021/09/10 11:05:50;;;;;;;;;;;;;;;;;;5038442;28;19921;-82
2021/09/10 11:08:34;;;;;;;;;;;;;;;;;;5036671;28;19924;-82
2021/09/10 11:11:20;;;;;;;;;;;;;;;;;;5040061;28;19920;-87
2021/09/10 11:14:04;;;;;;;;;;;;;;;;;;5030780;28;20053;-85
2021/09/10 11:16:48;;;;;;;;;;;;;;;;;;5033940;28;19921;-84
2021/09/10 11:19:32;;;;;;;;;;;;;;;;;;5042866;28;19928;-85
2021/09/10 11:22:20;;;;;;;;;;;;;;;;;;5037003;28;21406;-86
2021/09/10 11:25:04;;;;;;;;;;;;;;;;;;5038986;28;19920;-86
2021/09/10 11:27:49;;;;;;;;;;;;;;;;;;5039280;28;19920;-86
2021/09/10 11:30:34;;;;;;;;;;;;;;;;;;5036737;28;19920;-86
2021/09/10 11:33:18;;;;;;;;;;;;;;;;;;5037658;28;19920;-85
2021/09/10 11:36:03;;;;;;;;;;;;;;;;;;5041574;28;19920;-85
2021/09/10 11:38:47;;;;;;;;;;;;;;;;;;5040028;28;19920;-86
2021/09/10 11:41:31;;;;;;;;;;;;;;;;;;5036753;28;19920;-85
2021/09/10 11:44:16;;;;;;;;;;;;;;;;;;5041704;28;20160;-85
2021/09/10 11:47:01;;;;;;;;;;;;;;;;;;5037042;28;19920;-84
2021/09/10 11:49:45;;;;;;;;;;;;;;;;;;5034886;28;20297;-84
2021/09/10 11:52:30;;;;;;;;;;;;;;;;;;5035906;28;19919;-84
2021/09/10 11:55:16;;;;;;;;;;;;;;;;;;5038770;28;19920;-85
2021/09/10 11:58:01;;;;;;;;;;;;;;;;;;5036989;28;19920;-85
2021/09/10 12:00:45;;;;;;;;;;;;;;;;;;5035497;28;19924;-85
2021/09/10 12:03:29;;;;;;;;;;;;;;;;;;5038184;28;19920;-82
2021/09/10 12:06:14;;;;;;;;;;;;;;;;;;5036859;28;19921;-81
2021/09/10 12:08:59;;;;;;;;;;;;;;;;;;5034730;28;19924;-82
2021/09/10 12:11:43;;;;;;;;;;;;;;;;;;5038742;28;20293;-82
2021/09/10 12:14:27;;;;;;;;;;;;;;;;;;5037241;28;19921;-82
2021/09/10 12:17:13;;;;;;;;;;;;;;;;;;5034053;28;19923;-81
2021/09/10 12:19:58;;;;;;;;;;;;;;;;;;5035973;28;19924;-82
2021/09/10 12:22:42;;;;;;;;;;;;;;;;;;5035688;28;20400;-84
2021/09/10 12:25:29;;;;;;;;;;;;;;;;;;5032671;28;19920;-83
2021/09/10 12:28:14;;;;;;;;;;;;;;;;;;5034136;28;19921;-83
2021/09/10 12:30:58;;;;;;;;;;;;;;;;;;5034811;28;19928;-81
2021/09/10 12:33:44;;;;;;;;;;;;;;;;;;5035176;28;19920;-80
2021/09/10 12:36:29;;;;;;;;;;;;;;;;;;5037240;28;19919;-80
2021/09/10 12:39:14;;;;;;;;;;;;;;;;;;5038709;28;19924;-84
2021/09/10 12:42:00;;;;;;;;;;;;;;;;;;5040859;28;19920;-83
2021/09/10 12:44:44;;;;;;;;;;;;;;;;;;5039350;28;19920;-83
2021/09/10 12:47:30;;;;;;;;;;;;;;;;;;5043335;28;19928;-83
2021/09/10 12:50:15;;;;;;;;;;;;;;;;;;5040534;28;19924;-83
2021/09/10 12:52:59;;;;;;;;;;;;;;;;;;5042674;28;19920;-83
2021/09/10 12:55:44;;;;;;;;;;;;;;;;;;5041203;28;19921;-83
2021/09/10 12:58:30;;;;;;;;;;;;;;;;;;5040562;28;19920;-83
2021/09/10 13:01:16;;;;;;;;;;;;;;;;;;5048036;28;19924;-83
2021/09/10 13:04:01;;;;;;;;;;;;;;;;;;5044997;28;19920;-83
2021/09/10 13:06:46;;;;;;;;;;;;;;;;;;5043121;28;19921;-83
2021/09/10 13:09:31;;;;;;;;;;;;;;;;;;5040899;28;19924;-83
2021/09/10 13:12:16;;;;;;;;;;;;;;;;;;5042129;28;19920;-83
2021/09/10 13:15:00;;;;;;;;;;;;;;;;;;5043710;28;19920;-83
2021/09/10 13:17:45;;;;;;;;;;;;;;;;;;5042814;28;19932;-84
2021/09/10 13:20:30;;;;;;;;;;;;;;;;;;5044781;28;19932;-84
2021/09/10 13:23:15;;;;;;;;;;;;;;;;;;5043429;28;19920;-83
2021/09/10 13:26:00;;;;;;;;;;;;;;;;;;5042341;28;19920;-83
2021/09/10 13:28:46;;;;;;;;;;;;;;;;;;5043875;28;19993;-83
2021/09/10 13:31:32;;;;;;;;;;;;;;;;;;5040271;28;19924;-84
2021/09/10 13:34:16;;;;;;;;;;;;;;;;;;5042945;28;19924;-83
2021/09/10 13:37:01;;;;;;;;;;;;;;;;;;5042906;28;19920;-83
2021/09/10 13:39:51;;;;;;;;;;;;;;;;;;5040200;28;19928;-83
2021/09/10 13:42:36;;;;;;;;;;;;;;;;;;5040281;28;20336;-83
2021/09/10 13:45:20;;;;;;;;;;;;;;;;;;5040840;28;19920;-83
2021/09/10 13:48:07;;;;;;;;;;;;;;;;;;5041913;28;19921;-83
2021/09/10 13:50:53;;;;;;;;;;;;;;;;;;5040070;28;19924;-83
2021/09/10 13:53:38;;;;;;;;;;;;;;;;;;5043645;28;19920;-83
2021/09/10 13:56:22;;;;;;;;;;;;;;;;;;5047149;28;19924;-83
2021/09/10 13:59:07;;;;;;;;;;;;;;;;;;5046229;28;19924;-83
2021/09/10 14:01:51;;;;;;;;;;;;;;;;;;5042759;28;20424;-83
2021/09/10 14:04:38;;;;;;;;;;;;;;;;;;5048875;28;19920;-83
2021/09/10 14:07:23;;;;;;;;;;;;;;;;;;5046218;28;19921;-83
2021/09/10 14:10:07;;;;;;;;;;;;;;;;;;5044175;28;19924;-83
2021/09/10 14:12:51;;;;;;;;;;;;;;;;;;5046726;28;20381;-83
2021/09/10 14:15:35;;;;;;;;;;;;;;;;;;5045460;28;19936;-84
2021/09/10 14:18:20;;;;;;;;;;;;;;;;;;5043627;28;20392;-84
2021/09/10 14:21:05;;;;;;;;;;;;;;;;;;5040798;28;19924;-83
2021/09/10 14:23:49;;;;;;;;;;;;;;;;;;5045361;28;19921;-83
2021/09/10 14:26:33;;;;;;;;;;;;;;;;;;5043492;28;20428;-83
2021/09/10 14:29:18;;;;;;;;;;;;;;;;;;5047948;28;19921;-83
2021/09/10 14:32:02;;;;;;;;;;;;;;;;;;5046082;28;20451;-83
2021/09/10 14:34:47;;;;;;;;;;;;;;;;;;5042371;28;20123;-83
2021/09/10 14:37:32;;;;;;;;;;;;;;;;;;5043596;28;19924;-84
2021/09/10 14:40:16;;;;;;;;;;;;;;;;;;5045951;28;19924;-83
2021/09/10 14:43:01;;;;;;;;;;;;;;;;;;5045879;28;20317;-83
2021/09/10 14:45:45;;;;;;;;;;;;;;;;;;5041813;28;19920;-83
2021/09/10 14:48:30;;;;;;;;;;;;;;;;;;5042371;28;19928;-83
2021/09/10 14:51:14;;;;;;;;;;;;;;;;;;5043544;28;19920;-83
2021/09/10 14:53:58;;;;;;;;;;;;;;;;;;5047951;28;19920;-83
2021/09/10 14:56:42;;;;;;;;;;;;;;;;;;5046432;28;20223;-83
2021/09/10 15:02:14;;;;;;;;;;;;;;;;;;5048562;28;19920;-83
2021/09/10 15:04:58;;;;;;;;;;;;;;;;;;5041943;28;19936;-83
2021/09/10 15:07:42;;;;;;;;;;;;;;;;;;5044038;28;19924;-83
2021/09/10 15:10:26;;;;;;;;;;;;;;;;;;5045380;28;19928;-84
2021/09/10 15:13:11;;;;;;;;;;;;;;;;;;5043884;28;19920;-83
2021/09/10 15:15:55;;;;;;;;;;;;;;;;;;5039953;28;19924;-83
2021/09/10 15:18:39;;;;;;;;;;;;;;;;;;5035468;28;19928;-85
2021/09/10 15:21:23;;;;;;;;;;;;;;;;;;5035260;28;20435;-82
2021/09/10 15:24:07;;;;;;;;;;;;;;;;;;5036794;28;19920;-82
2021/09/10 15:26:52;;;;;;;;;;;;;;;;;;5041290;28;19924;-82
2021/09/10 15:29:37;;;;;;;;;;;;;;;;;;5042044;28;19921;-81
2021/09/10 15:32:21;;;;;;;;;;;;;;;;;;5036164;28;19920;-82
2021/09/10 15:35:05;;;;;;;;;;;;;;;;;;5035973;28;19924;-82
2021/09/10 15:37:49;;;;;;;;;;;;;;;;;;5034389;28;19936;-82
2021/09/10 15:40:33;;;;;;;;;;;;;;;;;;5035316;28;19925;-82
2021/09/10 15:43:18;;;;;;;;;;;;;;;;;;5036565;28;19920;-81
2021/09/10 15:46:02;;;;;;;;;;;;;;;;;;5038830;28;20317;-82
2021/09/10 15:48:46;;;;;;;;;;;;;;;;;;5040155;28;19920;-82
2021/09/10 15:51:31;;;;;;;;;;;;;;;;;;5035950;28;19921;-82
2021/09/10 15:54:15;;;;;;;;;;;;;;;;;;5036421;28;19920;-82
2021/09/10 15:57:00;;;;;;;;;;;;;;;;;;5034395;28;19929;-82
2021/09/10 15:59:44;;;;;;;;;;;;;;;;;;5037296;28;19924;-82
2021/09/10 16:02:29;;;;;;;;;;;;;;;;;;5033637;28;19924;-82
2021/09/10 16:05:14;;;;;;;;;;;;;;;;;;5038053;28;19921;-82
2021/09/10 16:07:58;;;;;;;;;;;;;;;;;;5036599;28;19920;-81
2021/09/10 16:10:42;;;;;;;;;;;;;;;;;;5039831;28;19928;-82
2021/09/10 16:13:26;;;;;;;;;;;;;;;;;;5039626;28;19984;-81
2021/09/10 16:16:12;;;;;;;;;;;;;;;;;;5036222;28;19920;-80
2021/09/10 16:18:56;;;;;;;;;;;;;;;;;;5042207;28;19924;-80
2021/09/10 16:21:40;;;;;;;;;;;;;;;;;;5036663;28;19928;-80
2021/09/10 16:24:25;;;;;;;;;;;;;;;;;;5036104;28;20436;-80
2021/09/10 16:27:09;;;;;;;;;;;;;;;;;;5035647;28;19924;-81
2021/09/10 16:29:54;;;;;;;;;;;;;;;;;;5036535;28;19936;-81
2021/09/10 16:32:38;;;;;;;;;;;;;;;;;;5037856;28;20404;-82
2021/09/10 16:35:22;;;;;;;;;;;;;;;;;;5038785;28;19932;-81
2021/09/10 16:38:06;;;;;;;;;;;;;;;;;;5036138;28;19920;-82
2021/09/10 16:40:50;;;;;;;;;;;;;;;;;;5036851;28;19923;-81
2021/09/10 16:43:35;;;;;;;;;;;;;;;;;;5040493;28;19921;-81
2021/09/10 16:46:20;;;;;;;;;;;;;;;;;;5040875;28;19928;-81
2021/09/10 16:49:04;;;;;;;;;;;;;;;;;;5039385;28;19920;-81
2021/09/10 16:51:48;;;;;;;;;;;;;;;;;;5035559;28;19921;-81
2021/09/10 16:54:32;;;;;;;;;;;;;;;;;;5037709;28;19925;-80
2021/09/10 16:57:17;;;;;;;;;;;;;;;;;;5038157;28;19924;-81
2021/09/10 17:00:01;;;;;;;;;;;;;;;;;;5038267;28;19925;-80
2021/09/10 17:02:45;;;;;;;;;;;;;;;;;;5035223;28;19920;-81
2021/09/10 17:05:29;;;;;;;;;;;;;;;;;;5036991;28;19936;-82
2021/09/10 17:08:13;;;;;;;;;;;;;;;;;;5036597;28;20388;-82
2021/09/10 17:10:58;;;;;;;;;;;;;;;;;;5038426;28;19924;-83
2021/09/10 17:13:42;;;;;;;;;;;;;;;;;;5037528;28;19924;-82
2021/09/10 17:16:26;;;;;;;;;;;;;;;;;;5040369;28;20297;-82
2021/09/10 17:19:11;;;;;;;;;;;;;;;;;;5036218;28;19920;-82
2021/09/10 17:21:55;;;;;;;;;;;;;;;;;;5037348;28;19921;-82
2021/09/10 17:24:39;;;;;;;;;;;;;;;;;;5038352;28;19928;-82
2021/09/10 17:27:23;;;;;;;;;;;;;;;;;;5038773;28;20312;-82
2021/09/10 17:30:08;;;;;;;;;;;;;;;;;;5044656;28;19921;-82
2021/09/10 17:32:52;;;;;;;;;;;;;;;;;;5040524;28;20305;-82
2021/09/10 17:35:36;;;;;;;;;;;;;;;;;;5041495;28;19920;-82
2021/09/10 17:38:20;;;;;;;;;;;;;;;;;;5042672;28;19921;-82
2021/09/10 17:41:05;;;;;;;;;;;;;;;;;;5040418;28;19928;-82
2021/09/10 17:43:49;;;;;;;;;;;;;;;;;;5041290;28;20293;-82
2021/09/10 17:46:33;;;;;;;;;;;;;;;;;;5041515;28;19920;-82
2021/09/10 17:49:18;;;;;;;;;;;;;;;;;;5042096;28;19920;-82
2021/09/10 17:52:02;;;;;;;;;;;;;;;;;;5042122;28;19920;-82
2021/09/10 17:54:46;;;;;;;;;;;;;;;;;;5039477;28;19923;-83
2021/09/10 17:57:32;;;;;;;;;;;;;;;;;;5040166;28;19920;-82
2021/09/10 18:00:16;;;;;;;;;;;;;;;;;;5041327;28;19924;-82
2021/09/10 18:03:00;;;;;;;;;;;;;;;;;;5048440;28;19929;-83
2021/09/10 18:05:44;;;;;;;;;;;;;;;;;;5043012;28;19928;-82
2021/09/10 18:08:28;;;;;;;;;;;;;;;;;;5040062;28;19939;-82
2021/09/10 18:11:13;;;;;;;;;;;;;;;;;;5039409;28;19928;-82
2021/09/10 18:13:57;;;;;;;;;;;;;;;;;;5042742;28;19919;-82
2021/09/10 18:16:42;;;;;;;;;;;;;;;;;;5037000;28;19920;-82
2021/09/10 18:19:26;;;;;;;;;;;;;;;;;;5037547;28;19920;-82
2021/09/10 18:22:11;;;;;;;;;;;;;;;;;;5053082;28;19954;-82
2021/09/10 18:24:55;;;;;;;;;;;;;;;;;;5042430;28;20332;-83
2021/09/10 18:27:39;;;;;;;;;;;;;;;;;;5036944;28;19925;-84
2021/09/10 18:30:23;;;;;;;;;;;;;;;;;;5040152;28;19920;-84
2021/09/10 18:33:07;;;;;;;;;;;;;;;;;;5036725;28;19920;-83
2021/09/10 18:35:52;;;;;;;;;;;;;;;;;;5037414;28;19920;-83
2021/09/10 18:38:36;;;;;;;;;;;;;;;;;;5035376;28;20389;-84
2021/09/10 18:41:20;;;;;;;;;;;;;;;;;;5036970;28;19932;-83
2021/09/10 18:44:06;;;;;;;;;;;;;;;;;;5039184;28;19920;-83
2021/09/10 18:46:50;;;;;;;;;;;;;;;;;;5037307;28;19936;-83